Time;durP1;ratioP1;P1;durP2;ratioP2;P2;SDS_P1;SDS_P2;PMS_P1;PMS_P2;Temp;Humidity;BMP_temperature;BMP_pressure;BME280_temperature;BME280_humidity;BME280_pressure;Samples;Min_cycle;Max_cycle;Signal;HPM_P1;HPM_P2
2021/08/10 00:00:10;;;;;;;4.18;2.28;;;;;;;14.89;85.66;101405.31;4982968;28;20041;-75
2021/08/10 00:02:39;;;;;;;2.47;1.75;;;;;;;14.85;85.36;101401.41;5006004;28;20041;-75
2021/08/10 00:05:06;;;;;;;8.02;2.90;;;;;;;14.84;85.27;101396.38;5001170;28;20084;-75
2021/08/10 00:07:32;;;;;;;4.78;2.33;;;;;;;14.79;85.29;101402.09;4982811;28;20121;-76
2021/08/10 00:09:57;;;;;;;4.15;2.35;;;;;;;14.76;85.46;101405.03;5005358;28;20033;-76
2021/08/10 00:12:23;;;;;;;3.92;1.83;;;;;;;14.72;85.69;101399.34;4986829;28;20042;-75
2021/08/10 00:14:48;;;;;;;8.88;3.22;;;;;;;14.76;85.36;101399.81;4985170;28;20050;-75
2021/08/10 00:17:14;;;;;;;3.88;2.00;;;;;;;14.73;85.36;101392.31;4988844;28;20491;-75
2021/08/10 00:19:39;;;;;;;5.93;2.40;;;;;;;14.73;85.55;101395.75;4981899;28;20407;-75
2021/08/10 00:22:05;;;;;;;5.18;2.50;;;;;;;14.73;85.30;101398.38;5010506;28;20021;-75
2021/08/10 00:24:30;;;;;;;4.07;1.80;;;;;;;14.68;85.36;101397.25;4989290;28;20042;-75
2021/08/10 00:26:56;;;;;;;7.30;2.35;;;;;;;14.66;85.38;101399.22;4995479;28;20155;-76
2021/08/10 00:29:21;;;;;;;4.75;2.67;;;;;;;14.64;85.56;101393.34;4989757;28;20038;-75
2021/08/10 00:31:47;;;;;;;5.28;2.38;;;;;;;14.63;85.61;101391.72;4988000;28;20029;-75
2021/08/10 00:34:13;;;;;;;4.80;2.58;;;;;;;14.60;85.80;101391.06;5005845;28;20040;-75
2021/08/10 00:36:39;;;;;;;3.53;2.00;;;;;;;14.59;85.73;101392.03;4983342;28;20032;-75
2021/08/10 00:39:07;;;;;;;7.20;2.78;;;;;;;14.58;85.53;101390.44;4979016;28;20033;-75
2021/08/10 00:41:36;;;;;;;8.48;2.65;;;;;;;14.57;84.96;101383.56;4978256;28;20095;-75
2021/08/10 00:44:04;;;;;;;6.55;2.22;;;;;;;14.48;85.48;101387.16;4982807;28;20034;-76
2021/08/10 00:46:30;;;;;;;5.47;2.60;;;;;;;14.45;85.55;101376.22;4991389;28;20579;-76
2021/08/10 00:48:55;;;;;;;3.47;1.88;;;;;;;14.40;85.63;101382.75;4979551;28;20072;-75
2021/08/10 00:51:22;;;;;;;4.20;2.20;;;;;;;14.37;85.85;101383.13;4976269;28;20038;-75
2021/08/10 00:53:53;;;;;;;6.47;2.38;;;;;;;14.36;85.83;101378.88;4972457;28;20124;-75
2021/08/10 00:56:20;;;;;;;3.85;2.20;;;;;;;14.35;85.89;101381.63;4966440;28;20502;-75
2021/08/10 00:58:49;;;;;;;8.20;2.20;;;;;;;14.31;85.90;101370.72;4982156;28;20030;-76
2021/08/10 01:01:15;;;;;;;6.88;2.05;;;;;;;14.28;85.84;101368.47;4979324;28;20034;-75
2021/08/10 01:03:43;;;;;;;4.80;1.98;;;;;;;14.29;85.97;101367.47;4975819;28;20018;-76
2021/08/10 01:06:17;;;;;;;5.80;2.58;;;;;;;14.31;85.50;101362.09;4984241;28;20041;-76
2021/08/10 01:09:06;;;;;;;5.20;2.13;;;;;;;14.28;85.68;101363.25;4993333;28;20132;-75
2021/08/10 01:12:01;;;;;;;5.45;2.80;;;;;;;14.29;85.83;101366.66;4986663;28;20084;-76
2021/08/10 01:14:51;;;;;;;6.28;2.00;;;;;;;14.26;85.71;101373.03;4991582;28;20026;-75
2021/08/10 01:17:38;;;;;;;7.75;3.10;;;;;;;14.26;85.79;101369.59;5004593;28;20044;-75
2021/08/10 01:20:09;;;;;;;10.90;2.35;;;;;;;14.29;85.79;101364.84;5001908;28;20080;-75
2021/08/10 01:22:39;;;;;;;10.32;3.05;;;;;;;14.28;86.03;101370.22;4987345;28;20029;-75
2021/08/10 01:25:09;;;;;;;6.70;3.22;;;;;;;14.29;85.97;101371.88;4983052;28;20595;-75
2021/08/10 01:27:53;;;;;;;5.32;2.65;;;;;;;14.31;86.08;101365.50;4985410;28;20523;-75
2021/08/10 01:30:25;;;;;;;3.90;1.98;;;;;;;14.26;86.49;101354.78;4975588;28;20510;-75
2021/08/10 01:32:53;;;;;;;6.75;2.40;;;;;;;14.25;86.86;101353.13;4985076;28;20040;-75
2021/08/10 01:35:20;;;;;;;10.20;3.67;;;;;;;14.34;86.69;101340.91;4984684;28;20450;-75
2021/08/10 01:37:50;;;;;;;6.82;2.40;;;;;;;14.30;86.40;101343.03;4990326;28;20399;-75
2021/08/10 01:40:17;;;;;;;8.25;2.92;;;;;;;14.31;86.37;101346.44;4989361;28;20025;-75
2021/08/10 01:42:53;;;;;;;11.75;3.95;;;;;;;14.27;86.56;101343.34;4985785;28;20033;-74
2021/08/10 01:45:20;;;;;;;7.45;3.00;;;;;;;14.31;86.46;101341.22;4996057;28;20545;-75
2021/08/10 01:47:49;;;;;;;8.02;2.42;;;;;;;14.25;86.87;101341.91;4993675;28;20034;-74
2021/08/10 01:50:22;;;;;;;10.65;2.60;;;;;;;14.27;86.70;101347.75;4988627;28;20032;-74
2021/08/10 01:53:18;;;;;;;11.30;2.80;;;;;;;14.25;87.02;101347.13;4994942;28;20490;-75
2021/08/10 01:55:45;;;;;;;6.38;3.20;;;;;;;14.25;87.00;101347.13;4990942;28;20026;-75
2021/08/10 01:58:20;;;;;;;3.38;2.20;;;;;;;14.26;86.92;101346.94;4994688;28;20029;-75
2021/08/10 02:00:49;;;;;;;9.25;3.10;;;;;;;14.30;87.07;101344.81;4983928;28;20601;-75
2021/08/10 02:03:17;;;;;;;5.05;2.50;;;;;;;14.32;86.79;101355.91;4996541;28;20040;-75
2021/08/10 02:05:54;;;;;;;6.03;2.60;;;;;;;14.32;86.94;101351.50;4984875;28;20099;-74
2021/08/10 02:08:28;;;;;;;5.25;2.55;;;;;;;14.35;86.83;101358.16;4971502;28;20404;-75
2021/08/10 02:10:54;;;;;;;6.93;3.17;;;;;;;14.35;87.01;101363.38;4986405;28;20032;-75
2021/08/10 02:13:23;;;;;;;4.70;2.30;;;;;;;14.34;87.06;101365.19;4967111;28;20810;-75
2021/08/10 02:15:51;;;;;;;5.05;2.90;;;;;;;14.36;87.20;101365.03;4999577;28;20054;-74
2021/08/10 02:18:19;;;;;;;5.50;2.50;;;;;;;14.35;87.45;101374.66;4987857;28;20052;-75
2021/08/10 02:21:09;;;;;;;3.80;2.10;;;;;;;14.37;87.44;101383.13;5003481;28;20073;-74
2021/08/10 02:23:38;;;;;;;8.90;2.72;;;;;;;14.41;87.38;101381.00;4991133;28;20029;-74
2021/08/10 02:26:05;;;;;;;8.10;3.15;;;;;;;14.48;87.31;101386.34;4997770;28;20085;-75
2021/08/10 02:28:31;;;;;;;5.25;2.47;;;;;;;14.41;87.33;101394.03;4994012;28;20500;-75
2021/08/10 02:31:02;;;;;;;7.75;2.40;;;;;;;14.37;87.57;101395.31;4982210;28;20161;-75
2021/08/10 02:33:39;;;;;;;4.90;2.00;;;;;;;14.38;87.85;101389.13;4999848;28;20037;-74
2021/08/10 02:36:10;;;;;;;6.72;2.47;;;;;;;14.43;87.76;101412.09;4988341;28;20066;-74
2021/08/10 02:38:37;;;;;;;7.78;3.08;;;;;;;14.50;87.58;101432.16;5010652;28;20615;-74
2021/08/10 02:41:05;;;;;;;9.15;3.08;;;;;;;14.46;87.49;101433.47;4967504;28;20065;-76
2021/08/10 02:43:38;;;;;;;13.90;3.28;;;;;;;14.59;87.48;101428.56;4973385;28;20029;-74
2021/08/10 02:46:06;;;;;;;16.80;2.95;;;;;;;14.46;87.86;101433.47;5012583;28;20136;-74
2021/08/10 02:48:32;;;;;;;7.55;3.10;;;;;;;14.45;87.65;101428.41;4987785;28;20182;-74
2021/08/10 02:50:59;;;;;;;8.00;2.47;;;;;;;14.44;87.45;101432.81;4981606;28;20121;-76
2021/08/10 02:53:25;;;;;;;8.90;3.22;;;;;;;14.37;87.30;101432.69;5017316;28;20038;-77
2021/08/10 02:56:09;;;;;;;8.70;2.63;;;;;;;14.28;87.58;101432.84;4996979;28;20125;-74
2021/08/10 02:58:45;;;;;;;8.82;3.22;;;;;;;14.22;87.40;101429.09;5005603;28;20029;-75
2021/08/10 03:01:16;;;;;;;6.90;2.97;;;;;;;14.33;86.79;101426.16;4984505;28;20399;-75
2021/08/10 03:03:45;;;;;;;9.70;3.20;;;;;;;14.21;87.07;101422.25;4987582;28;20030;-75
2021/08/10 03:06:12;;;;;;;7.85;3.60;;;;;;;14.26;87.36;101409.56;4996380;28;20083;-75
2021/08/10 03:08:46;;;;;;;6.32;3.20;;;;;;;14.14;87.45;101403.84;4993357;28;20037;-76
2021/08/10 03:11:13;;;;;;;8.43;3.17;;;;;;;14.12;87.94;101408.41;4991116;28;20030;-75
2021/08/10 03:13:45;;;;;;;9.32;3.10;;;;;;;14.10;87.97;101406.94;4988169;28;20515;-75
2021/08/10 03:16:14;;;;;;;7.47;3.53;;;;;;;14.09;88.03;101406.16;4979717;28;20117;-75
2021/08/10 03:18:39;;;;;;;8.93;3.42;;;;;;;14.08;88.04;101403.69;4998960;28;20021;-75
2021/08/10 03:21:07;;;;;;;7.05;3.83;;;;;;;14.11;87.14;101393.75;4984963;28;20161;-75
2021/08/10 03:23:36;;;;;;;8.57;3.65;;;;;;;14.09;87.06;101394.88;5010502;28;20033;-75
2021/08/10 03:26:03;;;;;;;6.63;3.85;;;;;;;14.09;86.76;101394.88;4988007;28;20037;-75
2021/08/10 03:28:32;;;;;;;9.05;3.58;;;;;;;14.10;86.76;101401.75;4994642;28;20068;-75
2021/08/10 03:30:59;;;;;;;4.97;3.30;;;;;;;14.12;86.87;101394.56;5002930;28;20091;-74
2021/08/10 03:33:30;;;;;;;7.32;3.55;;;;;;;14.14;86.85;101396.00;4986508;28;20032;-75
2021/08/10 03:35:59;;;;;;;8.77;3.40;;;;;;;14.17;85.69;101389.66;4994479;28;20042;-74
2021/08/10 03:38:28;;;;;;;7.85;3.65;;;;;;;14.14;85.73;101400.44;4972964;28;20037;-74
2021/08/10 03:40:54;;;;;;;7.75;3.50;;;;;;;14.12;85.84;101394.56;4972935;28;20041;-75
2021/08/10 03:43:21;;;;;;;7.93;3.80;;;;;;;14.08;85.36;101406.31;5003055;28;20022;-75
2021/08/10 03:45:52;;;;;;;6.35;3.42;;;;;;;14.05;85.51;101390.97;4993535;28;20209;-76
2021/08/10 03:48:17;;;;;;;11.23;4.03;;;;;;;14.06;85.51;101384.78;4986391;28;20065;-77
2021/08/10 03:50:45;;;;;;;10.10;3.88;;;;;;;14.05;85.92;101378.75;4968644;28;20081;-76
2021/08/10 03:53:10;;;;;;;10.85;4.13;;;;;;;14.01;85.65;101372.22;4990145;28;20034;-75
2021/08/10 03:55:38;;;;;;;9.20;3.97;;;;;;;14.00;85.74;101381.06;4989477;28;20036;-74
2021/08/10 03:58:06;;;;;;;8.20;3.90;;;;;;;13.94;86.29;101379.91;4996277;28;20034;-75
2021/08/10 04:00:37;;;;;;;8.02;3.60;;;;;;;13.95;86.49;101378.13;4991785;28;20018;-74
2021/08/10 04:03:05;;;;;;;7.32;3.58;;;;;;;13.99;86.58;101380.25;4971413;28;20116;-74
2021/08/10 04:05:32;;;;;;;8.85;3.90;;;;;;;13.95;86.35;101368.50;4998156;28;20022;-75
2021/08/10 04:08:01;;;;;;;8.45;3.15;;;;;;;13.93;85.87;101361.81;4985386;28;20133;-75
2021/08/10 04:10:27;;;;;;;9.45;3.80;;;;;;;14.05;85.41;101357.06;4978601;28;20029;-75
2021/08/10 04:12:53;;;;;;;5.82;3.33;;;;;;;13.85;85.84;101354.81;4981993;28;20022;-75
2021/08/10 04:15:23;;;;;;;7.90;3.40;;;;;;;13.74;86.43;101374.22;4991272;28;20113;-75
2021/08/10 04:17:49;;;;;;;8.75;3.78;;;;;;;13.71;86.87;101377.16;5011169;28;20038;-75
2021/08/10 04:20:17;;;;;;;7.20;3.28;;;;;;;13.71;87.14;101389.34;5006516;28;20033;-74
2021/08/10 04:22:43;;;;;;;7.60;3.10;;;;;;;13.72;87.15;101393.59;4986970;28;20038;-75
2021/08/10 04:25:13;;;;;;;7.05;3.25;;;;;;;13.72;87.00;101394.41;4986765;28;20033;-75
2021/08/10 04:27:40;;;;;;;6.60;3.33;;;;;;;13.72;86.84;101389.19;5003673;28;20033;-75
2021/08/10 04:30:06;;;;;;;9.85;2.90;;;;;;;13.72;86.58;101391.00;4980697;28;20030;-76
2021/08/10 04:32:33;;;;;;;5.72;3.35;;;;;;;13.70;86.73;101383.34;5000293;28;20609;-75
2021/08/10 04:35:02;;;;;;;6.60;2.65;;;;;;;13.71;86.61;101394.56;4972088;28;20036;-75
2021/08/10 04:37:27;;;;;;;7.43;3.55;;;;;;;13.70;86.37;101385.13;4982527;28;20188;-74
2021/08/10 04:39:55;;;;;;;6.32;3.15;;;;;;;13.68;86.16;101384.47;4977730;28;20030;-75
2021/08/10 04:42:41;;;;;;;8.02;3.60;;;;;;;13.67;86.20;101391.47;5005762;28;20030;-75
2021/08/10 04:45:07;;;;;;;5.82;2.67;;;;;;;13.69;85.97;101392.09;4989030;28;20034;-75
2021/08/10 04:47:33;;;;;;;8.15;3.13;;;;;;;13.71;85.78;101394.56;4979221;28;20033;-75
2021/08/10 04:50:00;;;;;;;7.05;2.88;;;;;;;13.74;85.53;101394.25;5016438;28;20021;-75
2021/08/10 04:52:25;;;;;;;8.40;3.28;;;;;;;13.76;85.44;101393.09;4989073;28;20040;-75
2021/08/10 04:54:51;;;;;;;5.18;2.72;;;;;;;13.78;85.21;101393.75;4983437;28;20041;-75
2021/08/10 04:57:17;;;;;;;8.88;3.08;;;;;;;13.79;85.29;101391.97;4991736;28;20084;-75
2021/08/10 04:59:42;;;;;;;5.43;3.15;;;;;;;13.81;85.17;101397.84;5016024;28;20030;-75
2021/08/10 05:02:08;;;;;;;7.20;3.42;;;;;;;13.80;84.88;101401.41;4992773;28;20033;-75
2021/08/10 05:04:34;;;;;;;6.57;2.80;;;;;;;13.80;85.03;101393.59;4993635;28;20029;-74
2021/08/10 05:07:03;;;;;;;5.47;2.65;;;;;;;13.80;85.25;101406.63;4999390;28;20455;-74
2021/08/10 05:09:33;;;;;;;8.00;3.33;;;;;;;13.83;85.30;101395.88;4996590;28;20024;-75
2021/08/10 05:12:00;;;;;;;6.85;3.17;;;;;;;13.82;85.20;101405.50;4991337;28;20036;-74
2021/08/10 05:14:25;;;;;;;5.97;3.05;;;;;;;13.80;85.32;101398.81;4995122;28;20022;-75
2021/08/10 05:16:54;;;;;;;6.13;3.38;;;;;;;13.81;85.47;101408.28;4962919;28;20030;-74
2021/08/10 05:19:20;;;;;;;5.47;2.28;;;;;;;13.85;85.53;101406.16;4989579;28;20165;-74
2021/08/10 05:21:45;;;;;;;5.97;2.85;;;;;;;13.88;85.41;101409.25;4980866;28;20029;-74
2021/08/10 05:24:11;;;;;;;7.95;3.35;;;;;;;13.95;85.35;101409.41;4998887;28;20041;-75
2021/08/10 05:26:37;;;;;;;6.85;3.38;;;;;;;13.92;85.83;101405.34;4987740;28;20356;-74
2021/08/10 05:29:02;;;;;;;9.35;3.80;;;;;;;13.97;85.94;101407.44;4994792;28;20037;-75
2021/08/10 05:31:28;;;;;;;12.98;3.83;;;;;;;14.02;86.13;101407.78;4991046;28;20029;-76
2021/08/10 05:33:54;;;;;;;8.05;3.88;;;;;;;13.97;86.61;101410.03;4978236;28;20018;-76
2021/08/10 05:36:20;;;;;;;8.35;4.25;;;;;;;14.02;86.75;101421.63;4970020;28;20034;-75
2021/08/10 05:38:49;;;;;;;8.00;4.32;;;;;;;14.07;87.13;101415.94;4989080;28;20041;-76
2021/08/10 05:41:16;;;;;;;9.63;3.97;;;;;;;14.09;87.09;101413.97;4984343;28;20033;-75
2021/08/10 05:43:43;;;;;;;8.98;3.90;;;;;;;14.13;87.28;101412.66;4964373;28;20072;-75
2021/08/10 05:46:09;;;;;;;8.57;4.13;;;;;;;14.10;87.71;101412.97;4983594;28;20038;-76
2021/08/10 05:48:34;;;;;;;7.45;3.85;;;;;;;14.09;87.89;101413.97;4982702;28;20294;-75
2021/08/10 05:51:01;;;;;;;12.02;3.85;;;;;;;14.27;87.87;101412.97;4998872;28;20029;-75
2021/08/10 05:53:29;;;;;;;9.80;4.40;;;;;;;14.27;87.63;101420.78;4988909;28;20606;-75
2021/08/10 05:55:54;;;;;;;6.65;3.30;;;;;;;14.39;87.60;101430.72;4979701;28;20034;-75
2021/08/10 05:58:20;;;;;;;7.00;3.42;;;;;;;14.43;87.59;101420.78;4974521;28;20033;-76
2021/08/10 06:00:45;;;;;;;12.65;4.00;;;;;;;14.68;87.56;101425.97;5001909;28;20029;-77
2021/08/10 06:03:14;;;;;;;7.30;3.83;;;;;;;14.96;86.32;101428.97;5000809;28;20073;-77
2021/08/10 06:05:39;;;;;;;8.80;3.33;;;;;;;15.30;85.27;101412.97;4982931;28;20077;-77
2021/08/10 06:08:06;;;;;;;12.05;4.03;;;;;;;15.79;84.04;101409.22;4987654;28;20033;-75
2021/08/10 06:10:42;;;;;;;9.35;3.83;;;;;;;16.25;82.31;101419.59;4980117;28;20026;-76
2021/08/10 06:13:07;;;;;;;6.90;3.42;;;;;;;16.73;81.08;101414.84;4998940;28;20042;-76
2021/08/10 06:15:33;;;;;;;11.40;3.85;;;;;;;17.05;79.78;101417.31;4990968;28;20025;-75
2021/08/10 06:18:02;;;;;;;7.95;3.22;;;;;;;17.24;78.72;101405.41;4986939;28;20037;-76
2021/08/10 06:20:28;;;;;;;9.15;3.58;;;;;;;16.95;79.06;101408.91;5000719;28;20038;-76
2021/08/10 06:22:54;;;;;;;7.30;3.67;;;;;;;16.83;79.69;101408.56;4991153;28;20084;-75
2021/08/10 06:25:19;;;;;;;8.00;3.58;;;;;;;16.82;80.76;101402.53;4989892;28;20033;-75
2021/08/10 06:27:46;;;;;;;6.28;3.00;;;;;;;17.02;79.54;101394.06;4985989;28;20040;-76
2021/08/10 06:30:13;;;;;;;7.00;3.63;;;;;;;16.71;80.48;101400.34;4980085;28;20033;-77
2021/08/10 06:32:40;;;;;;;4.53;2.60;;;;;;;16.54;81.43;101416.22;4998680;28;20488;-76
2021/08/10 06:35:06;;;;;;;7.15;2.58;;;;;;;16.45;81.32;101419.91;4995175;28;20026;-76
2021/08/10 06:37:32;;;;;;;6.00;3.13;;;;;;;16.39;81.37;101425.03;4998964;28;20026;-75
2021/08/10 06:39:57;;;;;;;6.13;3.30;;;;;;;16.22;82.68;101434.84;4986929;28;20024;-76
2021/08/10 06:42:24;;;;;;;6.22;2.92;;;;;;;16.15;83.29;101429.53;5010018;28;20030;-75
2021/08/10 06:44:59;;;;;;;6.00;2.70;;;;;;;16.16;83.03;101436.38;4995622;28;20074;-75
2021/08/10 06:47:26;;;;;;;4.32;2.55;;;;;;;16.16;83.42;101436.38;5002322;28;20419;-75
2021/08/10 06:49:52;;;;;;;7.07;2.85;;;;;;;16.28;82.58;101424.50;4983032;28;20017;-75
2021/08/10 06:52:18;;;;;;;6.20;2.30;;;;;;;16.41;82.74;101426.50;4998107;28;20123;-75
2021/08/10 06:54:44;;;;;;;5.32;2.75;;;;;;;16.41;82.89;101429.13;4993888;28;20603;-75
2021/08/10 06:57:10;;;;;;;7.18;3.90;;;;;;;16.45;83.36;101425.16;4981258;28;20037;-75
2021/08/10 06:59:38;;;;;;;6.28;2.67;;;;;;;16.39;82.78;101412.78;4994554;28;20391;-76
2021/08/10 07:02:09;;;;;;;6.40;2.85;;;;;;;16.40;83.14;101419.63;4988081;28;20041;-75
2021/08/10 07:04:36;;;;;;;10.48;3.58;;;;;;;16.49;82.45;101420.38;4976530;28;20026;-75
2021/08/10 07:07:05;;;;;;;6.55;2.78;;;;;;;16.71;81.68;101424.69;4996063;28;20040;-74
2021/08/10 07:09:35;;;;;;;4.70;2.53;;;;;;;16.92;80.47;101425.81;4992826;28;20026;-75
2021/08/10 07:12:03;;;;;;;6.57;3.15;;;;;;;17.28;80.79;101433.69;4998857;28;20398;-75
2021/08/10 07:14:32;;;;;;;6.57;2.75;;;;;;;17.43;79.81;101432.84;4974639;28;20083;-75
2021/08/10 07:17:00;;;;;;;3.63;2.28;;;;;;;17.25;78.11;101426.19;5001342;28;20337;-75
2021/08/10 07:19:29;;;;;;;3.45;2.15;;;;;;;17.23;79.17;101433.41;4967814;28;20029;-75
2021/08/10 07:21:55;;;;;;;6.38;2.20;;;;;;;17.21;80.29;101440.66;4984465;28;20041;-75
2021/08/10 07:24:22;;;;;;;8.40;2.85;;;;;;;17.27;79.47;101439.09;4987779;28;20041;-75
2021/08/10 07:26:49;;;;;;;7.50;2.83;;;;;;;17.36;78.19;101437.19;4984770;28;20659;-75
2021/08/10 07:29:14;;;;;;;5.57;2.35;;;;;;;17.43;79.04;101436.25;4991891;28;20076;-75
2021/08/10 07:31:40;;;;;;;4.60;2.30;;;;;;;17.46;80.01;101442.94;4994753;28;20483;-75
2021/08/10 07:34:11;;;;;;;6.07;2.30;;;;;;;17.58;78.54;101436.22;4987187;28;20100;-75
2021/08/10 07:36:39;;;;;;;6.07;2.78;;;;;;;17.55;78.94;101441.00;4994950;28;20426;-75
2021/08/10 07:39:06;;;;;;;6.15;2.60;;;;;;;17.62;79.49;101449.75;4985391;28;20030;-75
2021/08/10 07:41:33;;;;;;;6.15;2.40;;;;;;;17.64;79.33;101448.56;4992519;28;20087;-76
2021/08/10 07:44:04;;;;;;;8.48;2.75;;;;;;;17.73;78.75;101448.47;5002626;28;20054;-75
2021/08/10 07:46:35;;;;;;;6.22;2.58;;;;;;;17.77;79.40;101453.13;4989787;28;20033;-76
2021/08/10 07:49:01;;;;;;;4.22;2.33;;;;;;;17.83;79.72;101449.75;4993519;28;20030;-75
2021/08/10 07:51:27;;;;;;;4.70;2.40;;;;;;;18.01;78.76;101448.53;4985516;28;20037;-77
2021/08/10 07:53:52;;;;;;;5.95;2.75;;;;;;;17.93;78.75;101451.28;4985177;28;20022;-76
2021/08/10 07:56:18;;;;;;;10.40;3.22;;;;;;;17.87;78.30;101444.97;4981070;28;20488;-76
2021/08/10 07:58:45;;;;;;;7.57;2.83;;;;;;;18.33;76.51;101443.69;4977721;28;20460;-77
2021/08/10 08:01:12;;;;;;;4.93;2.20;;;;;;;18.54;76.06;101437.59;4975754;28;20080;-76
2021/08/10 08:03:38;;;;;;;12.07;2.78;;;;;;;18.56;75.97;101439.00;4974671;28;20041;-76
2021/08/10 08:06:04;;;;;;;6.53;3.53;;;;;;;18.46;76.18;101436.75;4980169;28;20459;-76
2021/08/10 08:08:30;;;;;;;6.47;2.45;;;;;;;18.46;76.13;101438.56;5001022;28;20065;-77
2021/08/10 08:10:58;;;;;;;11.73;2.70;;;;;;;18.39;77.02;101433.25;4983195;28;20026;-76
2021/08/10 08:13:29;;;;;;;5.07;3.05;;;;;;;18.38;77.79;101443.94;4978630;28;20018;-76
2021/08/10 08:15:56;;;;;;;4.68;2.63;;;;;;;18.42;76.50;101442.56;4986284;28;20329;-75
2021/08/10 08:18:23;;;;;;;9.95;3.33;;;;;;;18.25;76.91;101432.38;4991053;28;20468;-76
2021/08/10 08:20:49;;;;;;;9.43;3.10;;;;;;;18.43;77.11;101428.44;4993160;28;20488;-76
2021/08/10 08:23:18;;;;;;;8.55;3.15;;;;;;;18.32;77.05;101431.59;4980889;28;20046;-77
2021/08/10 08:25:45;;;;;;;5.93;3.10;;;;;;;18.35;76.81;101425.97;4988695;28;20119;-76
2021/08/10 08:28:13;;;;;;;6.32;2.95;;;;;;;18.44;76.50;101425.63;5007751;28;20028;-76
2021/08/10 08:30:39;;;;;;;6.43;3.08;;;;;;;18.34;78.41;101426.97;4997210;28;20048;-77
2021/08/10 08:33:09;;;;;;;5.25;2.58;;;;;;;18.36;76.77;101432.81;4984659;28;20125;-76
2021/08/10 08:35:37;;;;;;;4.95;2.80;;;;;;;18.27;77.65;101434.78;4999864;28;20026;-76
2021/08/10 08:38:04;;;;;;;7.18;3.38;;;;;;;18.31;77.99;101432.59;4984801;28;20040;-76
2021/08/10 08:40:35;;;;;;;3.40;2.15;;;;;;;18.26;76.84;101438.41;4978017;28;20025;-76
2021/08/10 08:43:01;;;;;;;6.43;2.25;;;;;;;18.26;77.45;101439.22;4992586;28;20029;-76
2021/08/10 08:45:26;;;;;;;5.75;2.75;;;;;;;18.21;76.69;101438.97;5000640;28;20037;-76
2021/08/10 08:47:54;;;;;;;6.65;2.80;;;;;;;18.11;79.07;101453.44;4996388;28;20033;-75
2021/08/10 08:50:23;;;;;;;5.13;2.65;;;;;;;18.11;79.13;101456.06;4973745;28;20472;-77
2021/08/10 08:52:51;;;;;;;7.50;3.05;;;;;;;18.17;78.86;101461.34;4980887;28;20045;-76
2021/08/10 08:55:19;;;;;;;10.10;3.00;;;;;;;17.89;79.68;101453.47;4985379;28;20030;-76
2021/08/10 08:57:44;;;;;;;4.90;3.08;;;;;;;17.89;79.22;101450.84;4996879;28;20491;-77
2021/08/10 09:00:17;;;;;;;9.52;3.20;;;;;;;17.69;80.50;101445.41;4997008;28;20030;-76
2021/08/10 09:02:45;;;;;;;6.30;3.60;;;;;;;17.65;81.52;101442.34;4985825;28;20091;-76
2021/08/10 09:05:12;;;;;;;7.45;3.38;;;;;;;17.57;81.00;101433.78;4971348;28;20237;-75
2021/08/10 09:07:39;;;;;;;7.07;3.08;;;;;;;17.61;81.01;101424.53;4992935;28;20237;-75
2021/08/10 09:10:15;;;;;;;5.63;2.63;;;;;;;17.64;80.91;101421.53;4971051;28;20079;-75
2021/08/10 09:12:47;;;;;;;7.57;3.22;;;;;;;17.60;80.99;101426.34;4985420;28;20395;-75
2021/08/10 09:15:37;;;;;;;8.95;2.67;;;;;;;17.56;81.63;101425.09;5004298;28;20117;-75
2021/08/10 09:18:16;;;;;;;10.27;3.38;;;;;;;17.65;81.71;101431.00;4979504;28;20040;-75
2021/08/10 09:21:04;;;;;;;8.10;3.20;;;;;;;17.72;81.96;101431.88;5002012;28;20522;-76
2021/08/10 09:23:45;;;;;;;10.65;3.15;;;;;;;17.88;82.13;101434.28;4988536;28;20072;-76
2021/08/10 09:26:19;;;;;;;6.80;3.10;;;;;;;17.95;82.39;101423.88;4993828;28;20064;-75
2021/08/10 09:28:46;;;;;;;10.63;3.38;;;;;;;17.99;81.01;101432.97;5005053;28;20026;-76
2021/08/10 09:31:32;;;;;;;8.32;3.65;;;;;;;18.05;83.06;101419.09;4985821;28;20387;-76
2021/08/10 09:34:04;;;;;;;12.38;3.75;;;;;;;18.18;81.51;101421.00;5005251;28;20038;-77
2021/08/10 09:36:30;;;;;;;5.85;3.15;;;;;;;18.25;81.21;101419.25;4996546;28;20038;-77
2021/08/10 09:38:57;;;;;;;6.78;3.95;;;;;;;18.40;80.25;101421.75;4969898;28;20048;-76
2021/08/10 09:41:26;;;;;;;7.63;3.25;;;;;;;18.42;80.54;101426.81;4987668;28;20034;-77
2021/08/10 09:44:13;;;;;;;8.07;3.00;;;;;;;18.36;80.05;101432.81;4997540;28;20040;-77
2021/08/10 09:46:58;;;;;;;5.60;3.60;;;;;;;18.49;79.68;101438.97;4983757;28;20025;-77
2021/08/10 09:49:23;;;;;;;6.75;3.63;;;;;;;18.40;80.17;101432.28;4976555;28;20484;-77
2021/08/10 09:51:51;;;;;;;6.90;3.17;;;;;;;18.41;80.37;101433.88;4983438;28;20036;-76
2021/08/10 09:54:19;;;;;;;9.05;3.03;;;;;;;18.49;80.91;101430.28;4981907;28;20515;-77
2021/08/10 09:56:55;;;;;;;8.38;3.10;;;;;;;18.66;80.66;101430.78;4988187;28;20080;-77
2021/08/10 09:59:26;;;;;;;7.22;3.58;;;;;;;18.84;79.82;101430.31;4980813;28;20433;-77
2021/08/10 10:01:59;;;;;;;9.43;3.42;;;;;;;18.89;79.74;101425.25;5003064;28;20068;-76
2021/08/10 10:04:26;;;;;;;;;;;;;;;18.93;79.22;101430.94;4996792;28;20030;-78
2021/08/10 10:07:11;;;;;;;7.82;3.67;;;;;;;18.89;80.00;101430.50;4981626;28;20011;-77
2021/08/10 10:09:40;;;;;;;11.65;4.07;;;;;;;18.93;79.55;101433.56;4992668;28;20120;-78
2021/08/10 10:12:08;;;;;;;7.32;3.28;;;;;;;19.03;78.34;101434.81;4991745;28;20521;-75
2021/08/10 10:14:35;;;;;;;8.85;3.85;;;;;;;19.13;77.98;101429.19;4973137;28;20028;-75
2021/08/10 10:17:02;;;;;;;7.47;3.60;;;;;;;19.15;77.48;101431.63;5004747;28;20060;-76
2021/08/10 10:19:29;;;;;;;9.07;3.20;;;;;;;19.34;77.05;101411.66;5002028;28;20498;-77
2021/08/10 10:22:03;;;;;;;6.35;3.78;;;;;;;19.54;76.93;101415.13;4985495;28;20084;-77
2021/08/10 10:24:35;;;;;;;7.80;3.42;;;;;;;19.97;76.54;101419.25;4988967;28;20026;-76
2021/08/10 10:27:04;;;;;;;8.98;3.50;;;;;;;20.52;72.99;101417.09;5001298;28;20057;-77
2021/08/10 10:29:30;;;;;;;8.68;3.20;;;;;;;20.84;72.94;101419.88;4996321;28;20065;-77
2021/08/10 10:31:56;;;;;;;8.07;3.50;;;;;;;20.82;71.35;101421.09;4991704;28;20107;-77
2021/08/10 10:34:22;;;;;;;9.13;3.63;;;;;;;20.91;71.46;101417.22;4988268;28;20452;-76
2021/08/10 10:36:49;;;;;;;6.53;3.72;;;;;;;20.72;73.32;101419.72;5000831;28;20033;-77
2021/08/10 10:39:34;;;;;;;8.43;3.42;;;;;;;20.38;69.97;101408.44;4994888;28;20052;-76
2021/08/10 10:42:02;;;;;;;6.47;2.83;;;;;;;20.90;71.49;101416.41;4976598;28;20457;-76
2021/08/10 10:44:54;;;;;;;6.40;3.20;;;;;;;21.10;69.62;101413.66;4994845;28;20120;-77
2021/08/10 10:47:23;;;;;;;9.93;3.25;;;;;;;21.01;67.87;101414.94;5001856;28;20054;-76
2021/08/10 10:49:57;;;;;;;8.40;2.72;;;;;;;20.82;67.76;101416.66;5003751;28;20034;-76
2021/08/10 10:52:31;;;;;;;5.65;2.83;;;;;;;20.93;67.85;101410.72;4989731;28;20392;-76
2021/08/10 10:54:58;;;;;;;6.80;3.40;;;;;;;21.29;67.14;101405.88;4998945;28;20038;-75
2021/08/10 10:57:30;;;;;;;6.68;3.38;;;;;;;21.50;67.25;101405.53;4976399;28;20038;-74
2021/08/10 11:00:16;;;;;;;4.65;2.60;;;;;;;21.48;66.29;101409.41;4989200;28;20115;-76
2021/08/10 11:02:42;;;;;;;8.68;2.65;;;;;;;21.83;65.23;101408.94;4999550;28;20631;-76
2021/08/10 11:05:08;;;;;;;5.70;2.33;;;;;;;22.09;65.46;101408.69;4972665;28;20116;-76
2021/08/10 11:07:42;;;;;;;6.97;2.50;;;;;;;22.36;64.43;101403.19;4995036;28;20116;-76
2021/08/10 11:10:38;;;;;;;8.88;2.85;;;;;;;22.29;64.44;101397.16;5012996;28;20102;-77
2021/08/10 11:13:24;;;;;;;4.63;2.40;;;;;;;22.41;62.01;101400.69;4990799;28;20039;-77
2021/08/10 11:15:50;;;;;;;3.50;2.08;;;;;;;22.33;63.49;101403.63;4978481;28;20116;-76
2021/08/10 11:18:15;;;;;;;5.15;1.88;;;;;;;22.21;62.63;101400.88;4992969;28;20140;-76
2021/08/10 11:21:10;;;;;;;4.55;1.95;;;;;;;22.39;62.43;101394.00;4983126;28;20034;-74
2021/08/10 11:23:37;;;;;;;5.18;2.85;;;;;;;22.68;64.13;101398.56;4966571;28;20447;-75
2021/08/10 11:26:02;;;;;;;5.28;2.42;;;;;;;22.82;61.92;101388.59;4986225;28;20029;-76
2021/08/10 11:28:37;;;;;;;3.72;2.10;;;;;;;22.98;62.30;101391.66;5009884;28;20148;-75
2021/08/10 11:31:08;;;;;;;6.43;2.35;;;;;;;22.95;60.73;101392.91;4999842;28;20455;-75
2021/08/10 11:33:34;;;;;;;8.43;2.38;;;;;;;23.08;59.49;101392.78;4965560;28;20030;-76